Flight Information

DEPARTURE
HELENA, MT
Elevation:
3877
Runways:
10/28 - 1584x75 - TURF
17/35 - 2989x75 - ASPH-F
5/23 - 4644x75 - ASPH-F
9/27 - 9000x150 - ASPH-G
ATIS:
120.4
Ground:
121.9
Tower:
HELENA TOWER 118.3
DESTINATION
,
Elevation:
TPA:
1000 (est.)


6293.9 NM74° True-16° Var57° HDG

Flight Plan:
(click to file on line)

1. Type
2. Aircraft Identification
3. Aircraft Type / Special Equipment
4. True Airspeed
kts
5. Departure Airport
(ICAO code)
6. Arriving Airport
(ICAO code)
7. Cruising Altitude
ft
8. Alternate Airport
(ICAO code)
9. Route of Flight
10. Remarks


00:00:00 Departure ATIS: Destination ATIS:

Clearance Limit:
Route:
Altitude: Expect in minutes
Frequency:
Transponder: (7500 Hijack / 7600 Lost Comms / 7700 Emergency)


KHLN 110253Z 29014G27KT 10SM CLR 03/M12 A2988 RMK AO2 PK WND 29032/0235 SLP150 T00281122 51038
Time: 2021-04-11T02:53:00Z
1618110864
Winds: 290 @ 14 kts
Gusting:27 kts
Visibility: 10.0 sm
Clouds (AGL): CLR
Temperature: 2.8 C
Dew Point: -12.2 C
Pressure: 29.878937 in Hgbr


Notes:

Data extracted from FAA Digital Chart Supplement. Effective: 0901Z Thursday, Feb 25, 2021 to 0901Z Thursday, APR 22, 2021
Current ATIS data is provided courtisy of PilotEdge.